Escanaba, MI

7:02 PM EST on January 30, 2015 (GMT -0500)
Soo Hill Location near | Change Station
CLOSE
Current Station
Personal Weather Station
Location: Escanaba, MI
Elevation: 708 ft
Nearby Weather Stations

Elev 708 ft 45.80 °N, 87.13 °W | Updated 3 seconds ago

Mostly Cloudy
Mostly Cloudy
14.9 °F
Feels Like 15 °F
N
0.0
Wind Variable Wind from SE
Gusts 0.0 mph

Today
High -- | Low -- °F
--% Chance of Precip.
Yesterday
High -- | Low -- °F
Precip. -- in
8:12 AM 5:51 PM
Waxing Gibbous, 86% visible
Pressure 30.36 in
Visibility 10.0 miles
Clouds Few 6000 ft
Mostly Cloudy 8000 ft
Windchill 15 °F
Dew Point -6 °F
Humidity 38%
Rainfall 0.00 in
Snow Depth Not available.
UV 0 out of 12
Pollen .10 out of 12
Air Quality Not available.
Flu Activity Not available.
METAR KESC 302355Z AUTO 20006KT 10SM FEW060 BKN080 M09/M14 A3036 RMK AO1 11080 21100 57017

More Conditions Fewer Conditions

Pressure 30.36 in
Visibility 10.0 miles
Clouds Few 6000 ft
Mostly Cloudy 8000 ft
Windchill 15 °F
Dew Point -6 °F
Humidity 38%
Rainfall 0.00 in
Snow Depth Not available.
UV 0 out of 12
Pollen .10 out of 12
Air Quality Not available.
Flu Activity Not available.
METAR KESC 302355Z AUTO 20006KT 10SM FEW060 BKN080 M09/M14 A3036 RMK AO1 11080 21100 57017

More Conditions Fewer Conditions

10-Day Weather Forecast

Almanac

Astronomy

Jan. 30, 2015 Rise Set
Actual Time
Civil Twilight
Nautical Twilight
Astronomical Twilight
Moon
Length of Visible Light
Length of Day
Tomorrow will be .
, % of the Moon is Illuminated

Today's Extremes

State Highs State Lows

Community

WunderPhotos

Upload Photos

1,791,939 photos uploaded!

WunderBlogs® & News

Nearby

Air Quality

  Air Quality AQ Index Pollutant
Not available.

Snow Depth

Station Depth Elevation

Earthquake Activity

City Distance Mag. Time & Date
Minimum magnitude displayed is 2.5.

Coastal Water Temperatures

Place Temperature

Nearby Weather Stations